createdAt,value
2023-01-29T00:00:52.418Z,1027.18
2023-01-29T00:01:52.827Z,1027.08
2023-01-29T00:02:53.169Z,1027.05
2023-01-29T00:03:53.520Z,1027.09
2023-01-29T00:04:58.725Z,1027.07
2023-01-29T00:05:54.237Z,1027.10
2023-01-29T00:06:54.594Z,1027.05
2023-01-29T00:07:54.959Z,1027.08
2023-01-29T00:08:55.250Z,1027.04
2023-01-29T00:09:55.606Z,1027.08
2023-01-29T00:10:55.991Z,1027.10
2023-01-29T00:11:56.309Z,1027.04
2023-01-29T00:12:56.696Z,1027.05
2023-01-29T00:13:57.053Z,1027.11
2023-01-29T00:14:57.337Z,1027.13
2023-01-29T00:15:57.674Z,1027.00
2023-01-29T00:16:58.100Z,1027.00
2023-01-29T00:17:58.353Z,1026.97
2023-01-29T00:18:58.747Z,1026.93
2023-01-29T00:19:59.070Z,1026.93
2023-01-29T00:20:59.490Z,1026.85
2023-01-29T00:21:59.784Z,1026.86
2023-01-29T00:23:00.109Z,1026.86
2023-01-29T00:24:00.601Z,1026.85
2023-01-29T00:25:00.806Z,1026.81
2023-01-29T00:26:01.192Z,1026.86
2023-01-29T00:27:01.538Z,1026.85
2023-01-29T00:28:01.889Z,1026.76
2023-01-29T00:29:02.234Z,1026.69
2023-01-29T00:30:02.566Z,1026.73
2023-01-29T00:31:03.042Z,1026.72
2023-01-29T00:32:03.455Z,1026.75
2023-01-29T00:33:03.612Z,1026.70
2023-01-29T00:34:03.966Z,1026.67
2023-01-29T00:35:04.315Z,1026.70
2023-01-29T00:36:04.654Z,1026.68
2023-01-29T00:37:05.064Z,1026.66
2023-01-29T00:38:05.387Z,1026.59
2023-01-29T00:39:05.673Z,1026.64
2023-01-29T00:40:06.020Z,1026.57
2023-01-29T00:41:06.405Z,1026.57
2023-01-29T00:42:06.750Z,1026.57
2023-01-29T00:43:07.103Z,1026.50
2023-01-29T00:44:07.483Z,1026.55
2023-01-29T00:45:07.826Z,1026.44
2023-01-29T00:46:08.141Z,1026.48
2023-01-29T00:47:08.507Z,1026.49
2023-01-29T00:48:08.869Z,1026.46
2023-01-29T00:49:09.274Z,1026.46
2023-01-29T00:50:09.563Z,1026.43
2023-01-29T00:51:09.930Z,1026.51
2023-01-29T00:52:10.305Z,1026.49
2023-01-29T00:53:10.638Z,1026.51
2023-01-29T00:54:10.978Z,1026.58
2023-01-29T00:55:11.376Z,1026.57
2023-01-29T00:56:11.813Z,1026.61
2023-01-29T00:57:12.051Z,1026.61
2023-01-29T00:58:12.381Z,1026.62
2023-01-29T00:59:13.320Z,1026.59
2023-01-29T01:00:13.153Z,1026.67
2023-01-29T01:01:13.525Z,1026.68
2023-01-29T01:02:13.850Z,1026.77
2023-01-29T01:03:14.173Z,1026.69
2023-01-29T01:04:14.478Z,1026.67
2023-01-29T01:05:14.829Z,1026.72
2023-01-29T01:06:15.168Z,1026.72
2023-01-29T01:07:16.555Z,1026.72
2023-01-29T01:08:15.866Z,1026.75
2023-01-29T01:09:16.208Z,1026.68
2023-01-29T01:10:16.926Z,1026.73
2023-01-29T01:11:16.968Z,1026.75
2023-01-29T01:12:17.335Z,1026.71
2023-01-29T01:13:17.684Z,1026.77
2023-01-29T01:14:18.014Z,1026.73
2023-01-29T01:15:18.372Z,1026.73
2023-01-29T01:16:18.858Z,1026.76
2023-01-29T01:17:19.106Z,1026.79
2023-01-29T01:18:19.529Z,1026.72
2023-01-29T01:19:19.783Z,1026.71
2023-01-29T01:20:20.140Z,1026.67
2023-01-29T01:21:20.498Z,1026.66
2023-01-29T01:22:20.847Z,1026.65
2023-01-29T01:23:21.199Z,1026.57
2023-01-29T01:24:21.649Z,1026.67
2023-01-29T01:25:21.893Z,1026.63
2023-01-29T01:26:22.237Z,1026.61
2023-01-29T01:27:22.597Z,1026.60
2023-01-29T01:28:22.942Z,1026.72
2023-01-29T01:29:23.270Z,1026.65
2023-01-29T01:30:23.682Z,1026.64
2023-01-29T01:31:24.166Z,1026.67
2023-01-29T01:32:24.385Z,1026.76
2023-01-29T01:33:24.683Z,1026.75
2023-01-29T01:34:25.066Z,1026.75
2023-01-29T01:35:25.396Z,1026.80
2023-01-29T01:36:25.777Z,1026.78
2023-01-29T01:37:26.158Z,1026.84
2023-01-29T01:38:32.971Z,1026.79
2023-01-29T01:39:26.783Z,1026.80
2023-01-29T01:40:27.112Z,1026.80
2023-01-29T01:41:27.517Z,1026.79
2023-01-29T01:42:27.866Z,1026.75
2023-01-29T01:43:28.213Z,1026.73
2023-01-29T01:44:28.541Z,1026.76
2023-01-29T01:45:28.909Z,1026.71
2023-01-29T01:46:29.231Z,1026.74
2023-01-29T01:47:29.648Z,1026.70
2023-01-29T01:48:29.966Z,1026.73
2023-01-29T01:49:30.304Z,1026.70
2023-01-29T01:50:30.676Z,1026.73
2023-01-29T01:51:30.993Z,1026.78
2023-01-29T01:52:31.384Z,1026.75
2023-01-29T01:53:31.733Z,1026.79
2023-01-29T01:54:32.058Z,1026.77
2023-01-29T01:55:32.420Z,1026.75
2023-01-29T01:56:33.705Z,1026.67
2023-01-29T01:57:33.158Z,1026.72
2023-01-29T01:58:33.553Z,1026.71
2023-01-29T01:59:33.860Z,1026.75
2023-01-29T02:00:34.368Z,1026.76
2023-01-29T02:01:34.561Z,1026.74
2023-01-29T02:02:34.960Z,1026.74
2023-01-29T02:03:35.288Z,1026.70
2023-01-29T02:04:35.674Z,1026.70
2023-01-29T02:05:36.016Z,1026.67
2023-01-29T02:06:36.355Z,1026.68
2023-01-29T02:07:36.698Z,1026.72
2023-01-29T02:08:37.047Z,1026.72
2023-01-29T02:09:37.404Z,1026.66
2023-01-29T02:10:37.812Z,1026.67
2023-01-29T02:11:38.118Z,1026.70
2023-01-29T02:12:38.511Z,1026.67
2023-01-29T02:13:38.826Z,1026.66
2023-01-29T02:14:39.234Z,1026.63
2023-01-29T02:15:39.585Z,1026.62
2023-01-29T02:16:39.921Z,1026.63
2023-01-29T02:17:40.421Z,1026.68
2023-01-29T02:18:40.635Z,1026.74
2023-01-29T02:19:40.987Z,1026.70
2023-01-29T02:20:41.337Z,1026.73
2023-01-29T02:21:41.700Z,1026.66
2023-01-29T02:22:42.122Z,1026.72
2023-01-29T02:23:42.392Z,1026.68
2023-01-29T02:24:42.781Z,1026.57
2023-01-29T02:25:43.130Z,1026.60
2023-01-29T02:26:43.444Z,1026.59
2023-01-29T02:27:43.828Z,1026.58
2023-01-29T02:28:44.190Z,1026.56
2023-01-29T02:29:44.491Z,1026.60
2023-01-29T02:30:44.949Z,1026.48
2023-01-29T02:31:45.280Z,1026.47
2023-01-29T02:32:45.624Z,1026.49
2023-01-29T02:33:45.919Z,1026.50
2023-01-29T02:34:46.301Z,1026.49
2023-01-29T02:35:46.637Z,1026.53
2023-01-29T02:36:46.994Z,1026.55
2023-01-29T02:37:47.351Z,1026.55
2023-01-29T02:38:47.700Z,1026.54
2023-01-29T02:39:48.089Z,1026.51
2023-01-29T02:40:48.398Z,1026.48
2023-01-29T02:41:48.796Z,1026.50
2023-01-29T02:42:49.158Z,1026.51
2023-01-29T02:43:49.451Z,1026.52
2023-01-29T02:44:49.837Z,1026.44
2023-01-29T02:45:50.184Z,1026.35
2023-01-29T02:46:50.510Z,1026.32
2023-01-29T02:47:50.909Z,1026.33
2023-01-29T02:48:51.240Z,1026.32
2023-01-29T02:49:51.579Z,1026.27
2023-01-29T02:50:51.924Z,1026.29
2023-01-29T02:51:52.257Z,1026.27
2023-01-29T02:52:52.608Z,1026.24
2023-01-29T02:53:52.937Z,1026.30
2023-01-29T02:54:53.305Z,1026.26
2023-01-29T02:55:53.660Z,1026.26
2023-01-29T02:56:53.962Z,1026.20
2023-01-29T02:57:54.329Z,1026.16
2023-01-29T02:58:54.694Z,1026.20
2023-01-29T02:59:55.026Z,1026.19
2023-01-29T03:00:55.407Z,1026.11
2023-01-29T03:01:55.780Z,1026.15
2023-01-29T03:02:56.087Z,1026.21
2023-01-29T03:03:56.418Z,1026.16
2023-01-29T03:04:56.751Z,1026.09
2023-01-29T03:05:57.106Z,1026.08
2023-01-29T03:06:57.429Z,1026.03
2023-01-29T03:07:57.774Z,1025.99
2023-01-29T03:08:58.120Z,1025.92
2023-01-29T03:09:58.457Z,1025.97
2023-01-29T03:10:58.803Z,1025.94
2023-01-29T03:11:59.142Z,1025.91
2023-01-29T03:12:59.478Z,1025.90
2023-01-29T03:13:59.845Z,1025.86
2023-01-29T03:15:00.160Z,1025.83
2023-01-29T03:16:00.531Z,1025.86
2023-01-29T03:17:00.896Z,1025.88
2023-01-29T03:18:01.226Z,1025.90
2023-01-29T03:19:01.602Z,1025.88
2023-01-29T03:20:01.926Z,1025.90
2023-01-29T03:21:02.252Z,1025.86
2023-01-29T03:22:02.599Z,1025.84
2023-01-29T03:23:02.948Z,1025.82
2023-01-29T03:24:03.354Z,1025.76
2023-01-29T03:25:03.637Z,1025.79
2023-01-29T03:26:04.003Z,1025.78
2023-01-29T03:27:04.341Z,1025.81
2023-01-29T03:28:04.690Z,1025.74
2023-01-29T03:29:05.028Z,1025.75
2023-01-29T03:30:05.371Z,1025.66
2023-01-29T03:31:05.735Z,1025.65
2023-01-29T03:32:06.138Z,1025.67
2023-01-29T03:33:06.453Z,1025.59
2023-01-29T03:34:06.821Z,1025.63
2023-01-29T03:35:07.094Z,1025.72
2023-01-29T03:36:07.433Z,1025.71
2023-01-29T03:37:07.777Z,1025.74
2023-01-29T03:38:08.199Z,1025.67
2023-01-29T03:39:08.500Z,1025.73
2023-01-29T03:40:08.861Z,1025.77
2023-01-29T03:41:09.202Z,1025.70
2023-01-29T03:42:09.587Z,1025.75
2023-01-29T03:43:09.908Z,1025.76
2023-01-29T03:44:10.220Z,1025.64
2023-01-29T03:45:10.595Z,1025.68
2023-01-29T03:46:10.956Z,1025.65
2023-01-29T03:47:11.303Z,1025.67
2023-01-29T03:48:11.684Z,1025.69
2023-01-29T03:49:11.995Z,1025.69
2023-01-29T03:50:12.335Z,1025.67
2023-01-29T03:51:12.673Z,1025.66
2023-01-29T03:52:13.062Z,1025.70
2023-01-29T03:53:13.405Z,1025.68
2023-01-29T03:54:13.766Z,1025.69
2023-01-29T03:55:14.096Z,1025.66
2023-01-29T03:56:14.549Z,1025.67
2023-01-29T03:57:14.824Z,1025.71
2023-01-29T03:58:15.203Z,1025.69
2023-01-29T03:59:15.513Z,1025.68
2023-01-29T04:00:16.313Z,1025.73
2023-01-29T04:01:16.260Z,1025.68
2023-01-29T04:02:16.592Z,1025.65
2023-01-29T04:03:16.974Z,1025.70
2023-01-29T04:04:17.309Z,1025.67
2023-01-29T04:05:17.631Z,1025.62
2023-01-29T04:06:17.998Z,1025.60
2023-01-29T04:07:18.314Z,1025.63
2023-01-29T04:08:18.671Z,1025.60
2023-01-29T04:09:19.031Z,1025.62
2023-01-29T04:10:19.359Z,1025.59
2023-01-29T04:11:19.689Z,1025.57
2023-01-29T04:12:20.071Z,1025.62
2023-01-29T04:13:20.422Z,1025.59
2023-01-29T04:14:20.773Z,1025.60
2023-01-29T04:15:21.104Z,1025.58
2023-01-29T04:16:21.469Z,1025.55
2023-01-29T04:17:21.792Z,1025.53
2023-01-29T04:18:22.153Z,1025.54
2023-01-29T04:19:22.493Z,1025.52
2023-01-29T04:20:22.840Z,1025.49
2023-01-29T04:21:23.210Z,1025.42
2023-01-29T04:22:23.521Z,1025.47
2023-01-29T04:23:23.891Z,1025.46
2023-01-29T04:24:24.254Z,1025.39
2023-01-29T04:25:24.576Z,1025.41
2023-01-29T04:26:24.953Z,1025.39
2023-01-29T04:27:25.291Z,1025.34
2023-01-29T04:28:25.676Z,1025.34
2023-01-29T04:29:27.406Z,1025.41
2023-01-29T04:30:26.372Z,1025.37
2023-01-29T04:31:26.778Z,1025.42
2023-01-29T04:32:27.058Z,1025.36
2023-01-29T04:33:27.462Z,1025.35
2023-01-29T04:34:27.740Z,1025.39
2023-01-29T04:35:28.117Z,1025.31
2023-01-29T04:36:28.449Z,1025.32
2023-01-29T04:37:28.790Z,1025.39
2023-01-29T04:38:29.187Z,1025.43
2023-01-29T04:39:29.486Z,1025.42
2023-01-29T04:40:29.840Z,1025.47
2023-01-29T04:41:30.169Z,1025.53
2023-01-29T04:42:30.514Z,1025.48
2023-01-29T04:43:30.876Z,1025.46
2023-01-29T04:44:31.205Z,1025.47
2023-01-29T04:45:31.546Z,1025.51
2023-01-29T04:46:31.904Z,1025.49
2023-01-29T04:47:32.276Z,1025.47
2023-01-29T04:48:32.608Z,1025.48
2023-01-29T04:49:32.921Z,1025.53
2023-01-29T04:50:33.254Z,1025.53
2023-01-29T04:51:33.650Z,1025.56
2023-01-29T04:52:33.982Z,1025.52
2023-01-29T04:53:34.305Z,1025.55
2023-01-29T04:54:36.450Z,1025.55
2023-01-29T04:55:34.967Z,1025.58
2023-01-29T04:56:35.349Z,1025.56
2023-01-29T04:57:35.717Z,1025.59
2023-01-29T04:58:36.082Z,1025.56
2023-01-29T04:59:36.430Z,1025.56
2023-01-29T05:00:36.767Z,1025.60
2023-01-29T05:01:37.147Z,1025.61
2023-01-29T05:02:37.545Z,1025.64
2023-01-29T05:03:37.825Z,1025.55
2023-01-29T05:04:38.171Z,1025.60
2023-01-29T05:05:38.496Z,1025.56
2023-01-29T05:06:38.860Z,1025.47
2023-01-29T05:07:39.193Z,1025.44
2023-01-29T05:08:39.554Z,1025.41
2023-01-29T05:09:39.917Z,1025.48
2023-01-29T05:10:40.263Z,1025.35
2023-01-29T05:11:40.598Z,1025.31
2023-01-29T05:12:40.995Z,1025.31
2023-01-29T05:13:41.335Z,1025.30
2023-01-29T05:14:41.679Z,1025.30
2023-01-29T05:15:42.048Z,1025.33
2023-01-29T05:16:42.371Z,1025.30
2023-01-29T05:17:42.691Z,1025.30
2023-01-29T05:18:43.072Z,1025.33
2023-01-29T05:19:43.432Z,1025.27
2023-01-29T05:20:43.799Z,1025.19
2023-01-29T05:21:44.204Z,1025.08
2023-01-29T05:22:44.463Z,1025.02
2023-01-29T05:23:44.824Z,1024.95
2023-01-29T05:24:45.156Z,1025.05
2023-01-29T05:25:45.510Z,1025.11
2023-01-29T05:26:45.845Z,1025.17
2023-01-29T05:27:46.244Z,1025.23
2023-01-29T05:28:46.576Z,1025.23
2023-01-29T05:29:46.936Z,1025.22
2023-01-29T05:30:47.324Z,1025.17
2023-01-29T05:31:47.695Z,1025.13
2023-01-29T05:32:47.976Z,1025.17
2023-01-29T05:33:48.375Z,1025.18
2023-01-29T05:34:48.692Z,1025.13
2023-01-29T05:35:49.023Z,1025.15
2023-01-29T05:36:49.376Z,1025.18
2023-01-29T05:37:49.712Z,1025.16
2023-01-29T05:38:50.105Z,1025.14
2023-01-29T05:39:50.416Z,1025.07
2023-01-29T05:40:50.764Z,1025.04
2023-01-29T05:41:51.114Z,1025.04
2023-01-29T05:42:51.452Z,1025.05
2023-01-29T05:43:51.822Z,1024.93
2023-01-29T05:44:52.180Z,1025.00
2023-01-29T05:45:52.480Z,1025.14
2023-01-29T05:46:52.893Z,1025.06
2023-01-29T05:47:53.192Z,1025.01
2023-01-29T05:48:53.582Z,1025.01
2023-01-29T05:49:53.914Z,1024.96
2023-01-29T05:50:54.243Z,1024.96
2023-01-29T05:51:54.575Z,1024.97
2023-01-29T05:52:54.917Z,1025.02
2023-01-29T05:53:55.258Z,1025.06
2023-01-29T05:54:55.688Z,1025.19
2023-01-29T05:55:56.002Z,1025.18
2023-01-29T05:56:56.300Z,1025.19
2023-01-29T05:57:56.659Z,1025.20
2023-01-29T05:58:57.025Z,1025.16
2023-01-29T05:59:57.390Z,1025.13
2023-01-29T06:00:57.719Z,1025.22
2023-01-29T06:01:58.106Z,1025.27
2023-01-29T06:02:58.493Z,1025.41
2023-01-29T06:03:58.842Z,1025.30
2023-01-29T06:04:59.135Z,1025.32
2023-01-29T06:05:59.514Z,1025.28
2023-01-29T06:06:59.841Z,1025.27
2023-01-29T06:08:00.207Z,1025.17
2023-01-29T06:09:00.570Z,1025.17
2023-01-29T06:10:00.937Z,1025.17
2023-01-29T06:11:01.272Z,1025.09
2023-01-29T06:12:01.662Z,1025.09
2023-01-29T06:13:01.992Z,1025.06
2023-01-29T06:14:02.350Z,1025.04
2023-01-29T06:15:02.683Z,1025.07
2023-01-29T06:16:03.100Z,1025.03
2023-01-29T06:17:03.437Z,1025.02
2023-01-29T06:18:03.756Z,1024.98
2023-01-29T06:19:04.101Z,1024.92
2023-01-29T06:20:04.433Z,1024.87
2023-01-29T06:21:04.774Z,1024.97
2023-01-29T06:22:05.136Z,1024.95
2023-01-29T06:23:05.473Z,1024.99
2023-01-29T06:24:05.871Z,1024.92
2023-01-29T06:25:06.162Z,1024.90
2023-01-29T06:26:06.526Z,1024.85
2023-01-29T06:27:06.885Z,1024.85
2023-01-29T06:28:07.194Z,1024.91
2023-01-29T06:29:07.562Z,1024.86
2023-01-29T06:30:07.916Z,1024.77
2023-01-29T06:31:37.293Z,1024.74
2023-01-29T06:32:08.685Z,1024.85
2023-01-29T06:33:08.967Z,1024.92
2023-01-29T06:34:09.391Z,1024.90
2023-01-29T06:35:09.693Z,1024.80
2023-01-29T06:36:10.051Z,1024.78
2023-01-29T06:37:10.400Z,1024.76
2023-01-29T06:38:10.729Z,1024.71
2023-01-29T06:39:11.116Z,1024.71
2023-01-29T06:40:11.409Z,1024.71
2023-01-29T06:41:11.765Z,1024.70
2023-01-29T06:42:12.107Z,1024.60
2023-01-29T06:43:12.447Z,1024.58
2023-01-29T06:44:12.798Z,1024.50
2023-01-29T06:45:13.139Z,1024.45
2023-01-29T06:46:13.494Z,1024.50
2023-01-29T06:47:13.832Z,1024.48
2023-01-29T06:48:14.185Z,1024.43
2023-01-29T06:49:14.539Z,1024.37
2023-01-29T06:50:15.367Z,1024.41
2023-01-29T06:51:15.280Z,1024.40
2023-01-29T06:52:15.650Z,1024.40
2023-01-29T06:53:15.987Z,1024.48
2023-01-29T06:54:16.348Z,1024.45
2023-01-29T06:55:16.724Z,1024.48
2023-01-29T06:56:17.105Z,1024.47
2023-01-29T06:57:17.414Z,1024.41
2023-01-29T06:58:17.668Z,1024.42
2023-01-29T06:59:18.093Z,1024.33
2023-01-29T07:00:18.786Z,1024.36
2023-01-29T07:01:34.548Z,1024.31
2023-01-29T07:02:19.166Z,1024.31
2023-01-29T07:03:19.578Z,1024.35
2023-01-29T07:04:19.797Z,1024.39
2023-01-29T07:05:20.062Z,1024.38
2023-01-29T07:06:20.315Z,1024.47
2023-01-29T07:07:20.653Z,1024.48
2023-01-29T07:08:20.902Z,1024.47
2023-01-29T07:09:21.248Z,1024.42
2023-01-29T07:10:21.361Z,1024.50
2023-01-29T07:11:21.679Z,1024.44
2023-01-29T07:12:21.916Z,1024.48
2023-01-29T07:13:22.201Z,1024.53
2023-01-29T07:14:22.516Z,1024.58
2023-01-29T07:15:22.774Z,1024.53
2023-01-29T07:16:23.140Z,1024.57
2023-01-29T07:17:23.386Z,1024.54
2023-01-29T07:18:23.667Z,1024.53
2023-01-29T07:19:23.981Z,1024.45
2023-01-29T07:20:24.232Z,1024.53
2023-01-29T07:21:24.526Z,1024.49
2023-01-29T07:22:24.812Z,1024.55
2023-01-29T07:23:25.151Z,1024.52
2023-01-29T07:24:25.444Z,1024.53
2023-01-29T07:25:25.746Z,1024.54
2023-01-29T07:26:25.981Z,1024.56
2023-01-29T07:27:26.239Z,1024.50
2023-01-29T07:28:26.403Z,1024.49
2023-01-29T07:29:26.597Z,1024.56
2023-01-29T07:30:26.750Z,1024.58
2023-01-29T07:31:27.107Z,1024.57
2023-01-29T07:32:27.213Z,1024.56
2023-01-29T07:33:27.383Z,1024.59
2023-01-29T07:34:27.572Z,1024.55
2023-01-29T07:35:27.810Z,1024.60
2023-01-29T07:36:27.982Z,1024.55
2023-01-29T07:37:28.136Z,1024.55
2023-01-29T07:38:28.444Z,1024.55
2023-01-29T07:39:28.627Z,1024.53
2023-01-29T07:40:28.824Z,1024.57
2023-01-29T07:41:29.103Z,1024.52
2023-01-29T07:42:29.279Z,1024.50
2023-01-29T07:43:29.540Z,1024.45
2023-01-29T07:44:29.717Z,1024.45
2023-01-29T07:45:29.967Z,1024.45
2023-01-29T07:46:30.014Z,1024.44
2023-01-29T07:47:30.178Z,1024.34
2023-01-29T07:48:30.373Z,1024.33
2023-01-29T07:49:30.532Z,1024.34
2023-01-29T07:50:30.677Z,1024.37
2023-01-29T07:51:31.000Z,1024.38
2023-01-29T07:52:31.161Z,1024.37
2023-01-29T07:53:31.308Z,1024.31
2023-01-29T07:54:31.640Z,1024.27
2023-01-29T07:55:31.805Z,1024.22
2023-01-29T07:56:31.945Z,1024.21
2023-01-29T07:57:32.132Z,1024.21
2023-01-29T07:58:32.982Z,1024.29
2023-01-29T07:59:32.666Z,1024.24
2023-01-29T08:00:32.792Z,1024.25
2023-01-29T08:01:32.935Z,1024.31
2023-01-29T08:02:33.289Z,1024.34
2023-01-29T08:03:33.509Z,1024.34
2023-01-29T08:04:33.737Z,1024.35
2023-01-29T08:05:33.851Z,1024.28
2023-01-29T08:06:34.124Z,1024.33
2023-01-29T08:07:34.436Z,1024.39
2023-01-29T08:08:34.744Z,1024.39
2023-01-29T08:09:35.008Z,1024.29
2023-01-29T08:10:35.181Z,1024.23
2023-01-29T08:11:35.471Z,1024.23
2023-01-29T08:12:35.806Z,1024.23
2023-01-29T08:13:36.076Z,1024.23
2023-01-29T08:14:36.274Z,1024.13
2023-01-29T08:15:38.739Z,1024.17
2023-01-29T08:16:36.932Z,1024.21
2023-01-29T08:17:49.101Z,1024.16
2023-01-29T08:18:37.307Z,1024.14
2023-01-29T08:19:37.493Z,1024.13
2023-01-29T08:20:37.789Z,1024.14
2023-01-29T08:21:37.956Z,1024.14
2023-01-29T08:22:38.251Z,1024.06
2023-01-29T08:23:38.380Z,1024.16
2023-01-29T08:24:53.303Z,1024.12
2023-01-29T08:25:38.757Z,1024.08
2023-01-29T08:26:39.013Z,1024.08
2023-01-29T08:27:39.203Z,1024.02
2023-01-29T08:28:39.356Z,1024.03
2023-01-29T08:29:39.711Z,1024.03
2023-01-29T08:30:39.986Z,1024.01
2023-01-29T08:31:40.279Z,1024.07
2023-01-29T08:32:40.391Z,1024.05
2023-01-29T08:33:40.577Z,1024.13
2023-01-29T08:34:40.770Z,1024.09
2023-01-29T08:35:40.893Z,1024.07
2023-01-29T08:36:41.208Z,1024.06
2023-01-29T08:37:41.384Z,1024.09
2023-01-29T08:38:41.520Z,1024.13
2023-01-29T08:40:41.874Z,1024.08
2023-01-29T08:41:42.181Z,1024.03
2023-01-29T08:42:42.448Z,1023.99
2023-01-29T08:43:42.612Z,1023.98
2023-01-29T08:44:42.798Z,1023.99
2023-01-29T08:45:43.041Z,1023.98
2023-01-29T08:46:43.117Z,1024.07
2023-01-29T08:47:43.414Z,1024.08
2023-01-29T08:48:43.596Z,1024.07
2023-01-29T08:49:43.888Z,1024.05
2023-01-29T08:50:44.136Z,1024.01
2023-01-29T08:51:44.303Z,1024.02
2023-01-29T08:52:44.462Z,1024.07
2023-01-29T08:53:44.626Z,1024.04
2023-01-29T08:54:44.934Z,1024.07
2023-01-29T08:55:45.220Z,1024.04
2023-01-29T08:56:45.573Z,1024.04
2023-01-29T08:57:45.753Z,1024.07
2023-01-29T08:58:46.007Z,1024.03
2023-01-29T08:59:46.219Z,1024.02
2023-01-29T09:00:46.304Z,1024.10
2023-01-29T09:01:46.556Z,1024.03
2023-01-29T09:02:46.823Z,1024.04
2023-01-29T09:03:46.961Z,1024.07
2023-01-29T09:04:47.102Z,1024.02
2023-01-29T09:05:47.257Z,1024.01
2023-01-29T09:06:47.525Z,1024.06
2023-01-29T09:07:47.756Z,1024.06
2023-01-29T09:08:47.904Z,1024.08
2023-01-29T09:09:48.056Z,1024.07
2023-01-29T09:10:48.189Z,1024.14
2023-01-29T09:11:48.536Z,1024.12
2023-01-29T09:12:48.792Z,1024.13
2023-01-29T09:13:49.040Z,1024.09
2023-01-29T09:14:49.363Z,1024.12
2023-01-29T09:15:49.385Z,1024.15
2023-01-29T09:16:49.610Z,1024.11
2023-01-29T09:17:49.861Z,1024.17
2023-01-29T09:18:49.915Z,1024.16
2023-01-29T09:19:50.084Z,1024.16
2023-01-29T09:20:50.251Z,1024.21
2023-01-29T09:21:50.517Z,1024.20
2023-01-29T09:22:50.834Z,1024.21
2023-01-29T09:23:50.959Z,1024.19
2023-01-29T09:24:51.256Z,1024.19
2023-01-29T09:25:51.569Z,1024.21
2023-01-29T09:26:51.754Z,1024.21
2023-01-29T09:27:51.888Z,1024.19
2023-01-29T09:28:52.201Z,1024.16
2023-01-29T09:29:52.512Z,1024.16
2023-01-29T09:30:52.906Z,1024.13
2023-01-29T09:31:53.180Z,1024.11
2023-01-29T09:32:54.422Z,1024.01
2023-01-29T09:33:53.415Z,1024.08
2023-01-29T09:34:53.625Z,1024.13
2023-01-29T09:35:53.793Z,1024.08
2023-01-29T09:36:53.934Z,1024.00
2023-01-29T09:37:54.234Z,1024.04
2023-01-29T09:38:54.363Z,1024.01
2023-01-29T09:39:54.688Z,1024.06
2023-01-29T09:40:54.994Z,1024.00
2023-01-29T09:41:55.253Z,1024.00
2023-01-29T09:42:55.555Z,1024.05
2023-01-29T09:43:55.765Z,1024.01
2023-01-29T09:44:55.916Z,1023.99
2023-01-29T09:45:56.104Z,1023.97
2023-01-29T09:46:56.332Z,1024.02
2023-01-29T09:47:56.514Z,1023.92
2023-01-29T09:48:56.720Z,1023.93
2023-01-29T09:49:56.872Z,1023.88
2023-01-29T09:50:57.023Z,1023.88
2023-01-29T09:51:57.336Z,1023.82
2023-01-29T09:52:57.496Z,1023.84
2023-01-29T09:53:57.809Z,1023.85
2023-01-29T09:54:58.126Z,1023.83
2023-01-29T09:55:58.305Z,1023.79
2023-01-29T09:56:58.548Z,1023.75
2023-01-29T09:57:58.703Z,1023.70
2023-01-29T09:59:00.637Z,1023.70
2023-01-29T09:59:59.226Z,1023.64
2023-01-29T10:00:59.503Z,1023.62
2023-01-29T10:01:59.915Z,1023.57
2023-01-29T10:03:00.110Z,1023.55
2023-01-29T10:04:00.218Z,1023.54
2023-01-29T10:05:00.413Z,1023.56
2023-01-29T10:06:00.692Z,1023.49
2023-01-29T10:07:00.966Z,1023.49
2023-01-29T10:08:01.155Z,1023.47
2023-01-29T10:09:01.472Z,1023.46
2023-01-29T10:10:01.847Z,1023.38
2023-01-29T10:11:01.958Z,1023.42
2023-01-29T10:12:02.097Z,1023.37
2023-01-29T10:13:02.400Z,1023.40
2023-01-29T10:14:02.587Z,1023.37
2023-01-29T10:15:02.750Z,1023.42
2023-01-29T10:16:02.961Z,1023.33
2023-01-29T10:17:03.481Z,1023.37
2023-01-29T10:18:03.830Z,1023.31
2023-01-29T10:19:09.804Z,1023.31
2023-01-29T10:20:03.851Z,1023.30
2023-01-29T10:21:04.022Z,1023.35
2023-01-29T10:22:04.167Z,1023.32
2023-01-29T10:23:04.339Z,1023.28
2023-01-29T10:24:04.498Z,1023.25
2023-01-29T10:25:04.706Z,1023.31
2023-01-29T10:26:04.955Z,1023.28
2023-01-29T10:27:05.148Z,1023.25
2023-01-29T10:28:05.437Z,1023.28
2023-01-29T10:29:05.609Z,1023.32
2023-01-29T10:30:05.824Z,1023.21
2023-01-29T10:31:06.060Z,1023.26
2023-01-29T10:32:06.338Z,1023.23
2023-01-29T10:33:06.411Z,1023.23
2023-01-29T10:34:06.714Z,1023.14
2023-01-29T10:35:06.995Z,1023.13
2023-01-29T10:36:07.950Z,1023.14
2023-01-29T10:37:07.373Z,1023.07
2023-01-29T10:38:07.558Z,1023.16
2023-01-29T10:39:07.766Z,1023.12
2023-01-29T10:40:07.955Z,1023.11
2023-01-29T10:41:08.241Z,1023.10
2023-01-29T10:42:08.517Z,1023.09
2023-01-29T10:43:08.777Z,1023.12
2023-01-29T10:44:08.958Z,1023.12
2023-01-29T10:45:09.249Z,1023.13
2023-01-29T10:46:09.408Z,1023.09
2023-01-29T10:47:09.722Z,1023.03
2023-01-29T10:48:09.890Z,1023.03
2023-01-29T10:49:10.169Z,1022.99
2023-01-29T10:50:10.371Z,1022.92
2023-01-29T10:51:10.500Z,1022.88
2023-01-29T10:52:10.729Z,1022.95
2023-01-29T10:53:10.981Z,1022.80
2023-01-29T10:54:11.163Z,1022.77
2023-01-29T10:55:11.350Z,1022.71
2023-01-29T10:56:22.336Z,1022.71
2023-01-29T10:57:11.689Z,1022.73
2023-01-29T10:58:11.964Z,1022.76
2023-01-29T10:59:12.109Z,1022.71
2023-01-29T11:00:12.404Z,1022.75
2023-01-29T11:01:12.666Z,1022.72
2023-01-29T11:02:12.713Z,1022.66
2023-01-29T11:03:26.431Z,1022.65
2023-01-29T11:04:13.331Z,1022.62
2023-01-29T11:05:13.557Z,1022.68
2023-01-29T11:06:13.837Z,1022.62
2023-01-29T11:07:14.086Z,1022.66
2023-01-29T11:08:14.356Z,1022.69
2023-01-29T11:09:14.630Z,1022.62
2023-01-29T11:10:15.089Z,1022.71
2023-01-29T11:11:15.003Z,1022.69
2023-01-29T11:12:15.263Z,1022.66
2023-01-29T11:13:15.519Z,1022.75
2023-01-29T11:14:15.833Z,1022.70
2023-01-29T11:15:16.147Z,1022.70
2023-01-29T11:16:16.354Z,1022.70
2023-01-29T11:17:16.637Z,1022.61
2023-01-29T11:18:16.876Z,1022.58
2023-01-29T11:19:17.152Z,1022.71
2023-01-29T11:20:17.845Z,1022.62
2023-01-29T11:21:17.730Z,1022.65
2023-01-29T11:22:17.955Z,1022.60
2023-01-29T11:23:18.107Z,1022.61
2023-01-29T11:24:18.252Z,1022.58
2023-01-29T11:25:18.452Z,1022.49
2023-01-29T11:26:18.641Z,1022.58
2023-01-29T11:27:18.763Z,1022.61
2023-01-29T11:28:19.011Z,1022.50
2023-01-29T11:29:19.124Z,1022.53
2023-01-29T11:30:19.661Z,1022.51
2023-01-29T11:31:19.708Z,1022.53
2023-01-29T11:32:19.844Z,1022.46
2023-01-29T11:33:20.019Z,1022.41
2023-01-29T11:34:20.169Z,1022.38
2023-01-29T11:35:20.359Z,1022.34
2023-01-29T11:36:20.518Z,1022.34
2023-01-29T11:37:20.669Z,1022.35
2023-01-29T11:38:20.920Z,1022.30
2023-01-29T11:39:21.169Z,1022.28
2023-01-29T11:40:21.340Z,1022.29
2023-01-29T11:41:21.522Z,1022.27
2023-01-29T11:42:21.832Z,1022.23
2023-01-29T11:43:22.088Z,1022.21
2023-01-29T11:44:22.222Z,1022.21
2023-01-29T11:45:22.387Z,1022.18
2023-01-29T11:46:22.628Z,1022.19
2023-01-29T11:47:22.857Z,1022.20
2023-01-29T11:48:23.058Z,1022.17
2023-01-29T11:49:23.204Z,1022.07
2023-01-29T11:50:23.512Z,1022.10
2023-01-29T11:51:23.677Z,1021.99
2023-01-29T11:52:23.983Z,1022.01
2023-01-29T11:53:24.165Z,1021.98
2023-01-29T11:54:24.275Z,1021.97
2023-01-29T11:55:24.547Z,1022.00
2023-01-29T11:56:24.621Z,1022.00
2023-01-29T11:57:24.910Z,1022.00
2023-01-29T11:58:25.109Z,1021.94
2023-01-29T11:59:25.317Z,1022.01
2023-01-29T12:00:25.445Z,1021.97
2023-01-29T12:01:25.832Z,1021.90
2023-01-29T12:02:25.896Z,1021.86
2023-01-29T12:03:26.118Z,1021.84
2023-01-29T12:04:26.406Z,1021.85
2023-01-29T12:05:26.644Z,1021.85
2023-01-29T12:06:26.943Z,1021.89
2023-01-29T12:07:27.096Z,1021.90
2023-01-29T12:08:27.302Z,1021.88
2023-01-29T12:09:27.634Z,1021.93
2023-01-29T12:10:27.986Z,1021.84